sensor_id;sensor_type;location;lat;lon;timestamp;temperature;humidity
65972;SHT31;52726;48.852;9.152;2023-06-26T00:00:29;18.29;62.51
65972;SHT31;52726;48.852;9.152;2023-06-26T00:02:54;18.28;62.70
65972;SHT31;52726;48.852;9.152;2023-06-26T00:05:20;18.28;63.54
65972;SHT31;52726;48.852;9.152;2023-06-26T00:07:45;18.29;63.70
65972;SHT31;52726;48.852;9.152;2023-06-26T00:10:10;18.24;64.98
65972;SHT31;52726;48.852;9.152;2023-06-26T00:12:36;18.19;65.17
65972;SHT31;52726;48.852;9.152;2023-06-26T00:15:01;18.15;65.30
65972;SHT31;52726;48.852;9.152;2023-06-26T00:17:27;18.06;65.90
65972;SHT31;52726;48.852;9.152;2023-06-26T00:19:52;18.05;65.37
65972;SHT31;52726;48.852;9.152;2023-06-26T00:22:18;18.08;65.49
65972;SHT31;52726;48.852;9.152;2023-06-26T00:24:44;18.06;65.62
65972;SHT31;52726;48.852;9.152;2023-06-26T00:27:12;18.08;65.09
65972;SHT31;52726;48.852;9.152;2023-06-26T00:29:37;18.05;64.98
65972;SHT31;52726;48.852;9.152;2023-06-26T00:32:04;18.12;64.81
65972;SHT31;52726;48.852;9.152;2023-06-26T00:34:29;18.08;65.08
65972;SHT31;52726;48.852;9.152;2023-06-26T00:36:54;18.04;66.01
65972;SHT31;52726;48.852;9.152;2023-06-26T00:39:20;18.02;65.72
65972;SHT31;52726;48.852;9.152;2023-06-26T00:41:45;18.04;65.95
65972;SHT31;52726;48.852;9.152;2023-06-26T00:44:11;18.01;66.30
65972;SHT31;52726;48.852;9.152;2023-06-26T00:46:36;17.97;66.42
65972;SHT31;52726;48.852;9.152;2023-06-26T00:49:02;17.95;66.30
65972;SHT31;52726;48.852;9.152;2023-06-26T00:51:31;17.88;66.93
65972;SHT31;52726;48.852;9.152;2023-06-26T00:53:57;17.88;66.62
65972;SHT31;52726;48.852;9.152;2023-06-26T00:56:23;17.90;66.49
65972;SHT31;52726;48.852;9.152;2023-06-26T00:58:49;17.90;66.94
65972;SHT31;52726;48.852;9.152;2023-06-26T01:01:14;17.85;66.98
65972;SHT31;52726;48.852;9.152;2023-06-26T01:03:48;17.75;67.20
65972;SHT31;52726;48.852;9.152;2023-06-26T01:06:17;17.77;67.09
65972;SHT31;52726;48.852;9.152;2023-06-26T01:08:44;17.71;67.00
65972;SHT31;52726;48.852;9.152;2023-06-26T01:11:10;17.74;67.17
65972;SHT31;52726;48.852;9.152;2023-06-26T01:13:41;17.80;67.10
65972;SHT31;52726;48.852;9.152;2023-06-26T01:16:07;17.82;66.85
65972;SHT31;52726;48.852;9.152;2023-06-26T01:18:34;17.84;67.11
65972;SHT31;52726;48.852;9.152;2023-06-26T01:21:01;17.91;67.14
65972;SHT31;52726;48.852;9.152;2023-06-26T01:23:38;17.97;65.77
65972;SHT31;52726;48.852;9.152;2023-06-26T01:28:46;18.02;67.12
65972;SHT31;52726;48.852;9.152;2023-06-26T01:31:12;17.98;67.53
65972;SHT31;52726;48.852;9.152;2023-06-26T01:33:39;17.91;67.85
65972;SHT31;52726;48.852;9.152;2023-06-26T01:36:06;17.77;68.23
65972;SHT31;52726;48.852;9.152;2023-06-26T01:38:31;17.63;68.79
65972;SHT31;52726;48.852;9.152;2023-06-26T01:40:57;17.53;68.91
65972;SHT31;52726;48.852;9.152;2023-06-26T01:46:25;17.46;69.17
65972;SHT31;52726;48.852;9.152;2023-06-26T01:51:21;17.37;69.50
65972;SHT31;52726;48.852;9.152;2023-06-26T01:53:53;17.32;69.82
65972;SHT31;52726;48.852;9.152;2023-06-26T01:56:21;17.25;70.26
65972;SHT31;52726;48.852;9.152;2023-06-26T01:58:49;17.18;70.25
65972;SHT31;52726;48.852;9.152;2023-06-26T02:01:15;17.15;70.41
65972;SHT31;52726;48.852;9.152;2023-06-26T02:03:41;17.14;70.20
65972;SHT31;52726;48.852;9.152;2023-06-26T02:06:07;17.14;70.59
65972;SHT31;52726;48.852;9.152;2023-06-26T02:08:32;17.12;70.85
65972;SHT31;52726;48.852;9.152;2023-06-26T02:10:57;17.09;71.07
65972;SHT31;52726;48.852;9.152;2023-06-26T02:13:23;17.06;70.98
65972;SHT31;52726;48.852;9.152;2023-06-26T02:15:48;16.99;71.22
65972;SHT31;52726;48.852;9.152;2023-06-26T02:18:14;16.96;71.35
65972;SHT31;52726;48.852;9.152;2023-06-26T02:20:39;16.92;71.65
65972;SHT31;52726;48.852;9.152;2023-06-26T02:23:05;16.85;71.84
65972;SHT31;52726;48.852;9.152;2023-06-26T02:25:30;16.81;72.04
65972;SHT31;52726;48.852;9.152;2023-06-26T02:27:55;16.75;72.27
65972;SHT31;52726;48.852;9.152;2023-06-26T02:30:21;16.71;72.27
65972;SHT31;52726;48.852;9.152;2023-06-26T02:32:46;16.69;72.48
65972;SHT31;52726;48.852;9.152;2023-06-26T02:35:11;16.71;72.59
65972;SHT31;52726;48.852;9.152;2023-06-26T02:37:36;16.67;72.33
65972;SHT31;52726;48.852;9.152;2023-06-26T02:40:02;16.65;72.90
65972;SHT31;52726;48.852;9.152;2023-06-26T02:42:30;16.64;72.85
65972;SHT31;52726;48.852;9.152;2023-06-26T02:44:56;16.56;73.11
65972;SHT31;52726;48.852;9.152;2023-06-26T02:47:22;16.54;73.03
65972;SHT31;52726;48.852;9.152;2023-06-26T02:49:47;16.50;73.20
65972;SHT31;52726;48.852;9.152;2023-06-26T02:52:12;16.50;72.86
65972;SHT31;52726;48.852;9.152;2023-06-26T02:54:38;16.50;73.22
65972;SHT31;52726;48.852;9.152;2023-06-26T02:57:03;16.53;73.12
65972;SHT31;52726;48.852;9.152;2023-06-26T02:59:29;16.58;72.55
65972;SHT31;52726;48.852;9.152;2023-06-26T03:01:54;16.57;72.65
65972;SHT31;52726;48.852;9.152;2023-06-26T03:04:19;16.57;73.63
65972;SHT31;52726;48.852;9.152;2023-06-26T03:06:46;16.54;73.45
65972;SHT31;52726;48.852;9.152;2023-06-26T03:09:11;16.49;73.42
65972;SHT31;52726;48.852;9.152;2023-06-26T03:11:37;16.46;74.19
65972;SHT31;52726;48.852;9.152;2023-06-26T03:14:02;16.39;74.32
65972;SHT31;52726;48.852;9.152;2023-06-26T03:16:27;16.33;74.48
65972;SHT31;52726;48.852;9.152;2023-06-26T03:18:53;16.27;74.36
65972;SHT31;52726;48.852;9.152;2023-06-26T03:21:18;16.22;74.66
65972;SHT31;52726;48.852;9.152;2023-06-26T03:23:43;16.17;74.49
65972;SHT31;52726;48.852;9.152;2023-06-26T03:26:09;16.13;75.04
65972;SHT31;52726;48.852;9.152;2023-06-26T03:28:34;16.13;75.19
65972;SHT31;52726;48.852;9.152;2023-06-26T03:31:00;16.06;75.36
65972;SHT31;52726;48.852;9.152;2023-06-26T03:33:26;16.05;75.24
65972;SHT31;52726;48.852;9.152;2023-06-26T03:35:51;16.08;75.14
65972;SHT31;52726;48.852;9.152;2023-06-26T03:38:17;16.06;75.60
65972;SHT31;52726;48.852;9.152;2023-06-26T03:40:42;16.09;75.07
65972;SHT31;52726;48.852;9.152;2023-06-26T03:43:07;16.10;75.79
65972;SHT31;52726;48.852;9.152;2023-06-26T03:45:33;16.16;75.27
65972;SHT31;52726;48.852;9.152;2023-06-26T03:47:58;16.14;75.52
65972;SHT31;52726;48.852;9.152;2023-06-26T03:50:24;16.12;76.07
65972;SHT31;52726;48.852;9.152;2023-06-26T03:52:49;16.14;75.78
65972;SHT31;52726;48.852;9.152;2023-06-26T03:55:15;16.16;75.97
65972;SHT31;52726;48.852;9.152;2023-06-26T03:57:41;16.14;76.07
65972;SHT31;52726;48.852;9.152;2023-06-26T04:00:07;16.20;75.58
65972;SHT31;52726;48.852;9.152;2023-06-26T04:02:37;16.17;75.73
65972;SHT31;52726;48.852;9.152;2023-06-26T04:05:02;16.20;75.75
65972;SHT31;52726;48.852;9.152;2023-06-26T04:07:31;16.27;74.98
65972;SHT31;52726;48.852;9.152;2023-06-26T04:09:57;16.23;75.66
65972;SHT31;52726;48.852;9.152;2023-06-26T04:12:22;16.29;75.17
65972;SHT31;52726;48.852;9.152;2023-06-26T04:14:47;16.36;75.20
65972;SHT31;52726;48.852;9.152;2023-06-26T04:17:13;16.40;75.04
65972;SHT31;52726;48.852;9.152;2023-06-26T04:19:38;16.43;76.36
65972;SHT31;52726;48.852;9.152;2023-06-26T04:22:03;16.43;76.73
65972;SHT31;52726;48.852;9.152;2023-06-26T04:24:29;16.46;76.86
65972;SHT31;52726;48.852;9.152;2023-06-26T04:26:54;16.47;76.69
65972;SHT31;52726;48.852;9.152;2023-06-26T04:29:22;16.49;76.52
65972;SHT31;52726;48.852;9.152;2023-06-26T04:31:53;16.57;76.08
65972;SHT31;52726;48.852;9.152;2023-06-26T04:34:27;16.61;76.69
65972;SHT31;52726;48.852;9.152;2023-06-26T04:36:52;16.65;76.08
65972;SHT31;52726;48.852;9.152;2023-06-26T04:39:18;16.67;76.36
65972;SHT31;52726;48.852;9.152;2023-06-26T04:41:44;16.74;76.36
65972;SHT31;52726;48.852;9.152;2023-06-26T04:44:10;16.82;76.32
65972;SHT31;52726;48.852;9.152;2023-06-26T04:46:37;16.92;75.92
65972;SHT31;52726;48.852;9.152;2023-06-26T04:49:03;17.06;75.31
65972;SHT31;52726;48.852;9.152;2023-06-26T04:51:28;17.16;75.19
65972;SHT31;52726;48.852;9.152;2023-06-26T04:53:54;17.22;74.99
65972;SHT31;52726;48.852;9.152;2023-06-26T04:56:19;17.36;74.08
65972;SHT31;52726;48.852;9.152;2023-06-26T04:58:45;17.46;74.00
65972;SHT31;52726;48.852;9.152;2023-06-26T05:01:10;17.60;73.13
65972;SHT31;52726;48.852;9.152;2023-06-26T05:03:39;17.77;72.29
65972;SHT31;52726;48.852;9.152;2023-06-26T05:06:04;17.91;72.22
65972;SHT31;52726;48.852;9.152;2023-06-26T05:08:29;17.97;71.98
65972;SHT31;52726;48.852;9.152;2023-06-26T05:10:55;18.04;72.16
65972;SHT31;52726;48.852;9.152;2023-06-26T05:13:23;18.08;72.34
65972;SHT31;52726;48.852;9.152;2023-06-26T05:15:49;18.13;71.77
65972;SHT31;52726;48.852;9.152;2023-06-26T05:18:14;18.22;71.64
65972;SHT31;52726;48.852;9.152;2023-06-26T05:20:40;18.47;70.00
65972;SHT31;52726;48.852;9.152;2023-06-26T05:23:06;18.59;69.90
65972;SHT31;52726;48.852;9.152;2023-06-26T05:25:32;18.68;69.84
65972;SHT31;52726;48.852;9.152;2023-06-26T05:27:59;18.88;69.31
65972;SHT31;52726;48.852;9.152;2023-06-26T05:30:25;19.01;68.37
65972;SHT31;52726;48.852;9.152;2023-06-26T05:32:52;19.05;68.94
65972;SHT31;52726;48.852;9.152;2023-06-26T05:35:20;19.25;68.11
65972;SHT31;52726;48.852;9.152;2023-06-26T05:37:48;19.34;68.31
65972;SHT31;52726;48.852;9.152;2023-06-26T05:40:14;19.39;67.85
65972;SHT31;52726;48.852;9.152;2023-06-26T05:42:40;19.48;67.72
65972;SHT31;52726;48.852;9.152;2023-06-26T05:45:06;19.53;67.21
65972;SHT31;52726;48.852;9.152;2023-06-26T05:47:31;19.65;66.97
65972;SHT31;52726;48.852;9.152;2023-06-26T05:49:57;19.77;67.16
65972;SHT31;52726;48.852;9.152;2023-06-26T05:52:23;19.89;65.70
65972;SHT31;52726;48.852;9.152;2023-06-26T05:54:48;20.00;67.14
65972;SHT31;52726;48.852;9.152;2023-06-26T05:57:15;20.17;66.01
65972;SHT31;52726;48.852;9.152;2023-06-26T05:59:40;20.44;64.75
65972;SHT31;52726;48.852;9.152;2023-06-26T06:02:08;20.65;64.94
65972;SHT31;52726;48.852;9.152;2023-06-26T06:04:33;20.76;65.64
65972;SHT31;52726;48.852;9.152;2023-06-26T06:06:59;20.94;64.82
65972;SHT31;52726;48.852;9.152;2023-06-26T06:09:24;21.07;63.32
65972;SHT31;52726;48.852;9.152;2023-06-26T06:11:50;21.20;63.16
65972;SHT31;52726;48.852;9.152;2023-06-26T06:14:15;21.50;62.61
65972;SHT31;52726;48.852;9.152;2023-06-26T06:16:40;21.68;62.89
65972;SHT31;52726;48.852;9.152;2023-06-26T06:19:06;21.83;62.53
65972;SHT31;52726;48.852;9.152;2023-06-26T06:21:35;22.09;62.09
65972;SHT31;52726;48.852;9.152;2023-06-26T06:24:03;22.36;62.26
65972;SHT31;52726;48.852;9.152;2023-06-26T06:26:31;22.60;60.37
65972;SHT31;52726;48.852;9.152;2023-06-26T06:28:57;22.81;60.95
65972;SHT31;52726;48.852;9.152;2023-06-26T06:31:22;23.09;59.51
65972;SHT31;52726;48.852;9.152;2023-06-26T06:33:48;23.38;58.30
65972;SHT31;52726;48.852;9.152;2023-06-26T06:36:13;24.16;57.05
65972;SHT31;52726;48.852;9.152;2023-06-26T06:38:38;24.94;55.64
65972;SHT31;52726;48.852;9.152;2023-06-26T06:41:11;25.83;54.03
65972;SHT31;52726;48.852;9.152;2023-06-26T06:43:36;26.45;52.24
65972;SHT31;52726;48.852;9.152;2023-06-26T06:46:02;26.95;49.74
65972;SHT31;52726;48.852;9.152;2023-06-26T06:48:27;27.58;48.54
65972;SHT31;52726;48.852;9.152;2023-06-26T06:50:53;27.54;47.84
65972;SHT31;52726;48.852;9.152;2023-06-26T06:53:18;27.89;48.44
65972;SHT31;52726;48.852;9.152;2023-06-26T06:55:48;28.29;47.43
65972;SHT31;52726;48.852;9.152;2023-06-26T06:58:13;28.74;46.16
65972;SHT31;52726;48.852;9.152;2023-06-26T07:00:39;29.20;45.18
65972;SHT31;52726;48.852;9.152;2023-06-26T07:03:04;29.42;43.50
65972;SHT31;52726;48.852;9.152;2023-06-26T07:05:30;29.74;44.70
65972;SHT31;52726;48.852;9.152;2023-06-26T07:07:55;29.49;42.35
65972;SHT31;52726;48.852;9.152;2023-06-26T07:10:20;29.90;43.20
65972;SHT31;52726;48.852;9.152;2023-06-26T07:12:46;29.91;41.25
65972;SHT31;52726;48.852;9.152;2023-06-26T07:15:12;30.29;40.18
65972;SHT31;52726;48.852;9.152;2023-06-26T07:17:37;30.22;42.23
65972;SHT31;52726;48.852;9.152;2023-06-26T07:20:04;29.85;42.73
65972;SHT31;52726;48.852;9.152;2023-06-26T07:22:32;30.22;42.50
65972;SHT31;52726;48.852;9.152;2023-06-26T07:24:57;30.59;43.82
65972;SHT31;52726;48.852;9.152;2023-06-26T07:27:23;30.88;40.95
65972;SHT31;52726;48.852;9.152;2023-06-26T07:29:51;31.15;40.20
65972;SHT31;52726;48.852;9.152;2023-06-26T07:32:16;31.22;38.89
65972;SHT31;52726;48.852;9.152;2023-06-26T07:34:42;31.48;39.43
65972;SHT31;52726;48.852;9.152;2023-06-26T07:37:07;31.48;39.49
65972;SHT31;52726;48.852;9.152;2023-06-26T07:39:33;32.13;38.43
65972;SHT31;52726;48.852;9.152;2023-06-26T07:41:58;31.83;38.94
65972;SHT31;52726;48.852;9.152;2023-06-26T07:44:25;32.26;38.35
65972;SHT31;52726;48.852;9.152;2023-06-26T07:46:50;31.86;38.12
65972;SHT31;52726;48.852;9.152;2023-06-26T07:49:16;31.96;37.19
65972;SHT31;52726;48.852;9.152;2023-06-26T07:51:41;32.00;38.63
65972;SHT31;52726;48.852;9.152;2023-06-26T07:54:07;32.05;38.18
65972;SHT31;52726;48.852;9.152;2023-06-26T07:56:51;32.09;38.72
65972;SHT31;52726;48.852;9.152;2023-06-26T07:59:17;32.60;36.94
65972;SHT31;52726;48.852;9.152;2023-06-26T08:01:43;32.79;37.73
65972;SHT31;52726;48.852;9.152;2023-06-26T08:04:08;32.33;36.74
65972;SHT31;52726;48.852;9.152;2023-06-26T08:06:36;32.57;35.92
65972;SHT31;52726;48.852;9.152;2023-06-26T08:09:06;32.43;37.20
65972;SHT31;52726;48.852;9.152;2023-06-26T08:11:33;31.83;37.38
65972;SHT31;52726;48.852;9.152;2023-06-26T08:13:59;31.63;38.09
65972;SHT31;52726;48.852;9.152;2023-06-26T08:16:24;32.23;38.56
65972;SHT31;52726;48.852;9.152;2023-06-26T08:18:49;31.83;39.33
65972;SHT31;52726;48.852;9.152;2023-06-26T08:21:15;31.72;38.87
65972;SHT31;52726;48.852;9.152;2023-06-26T08:23:40;31.45;38.96
65972;SHT31;52726;48.852;9.152;2023-06-26T08:26:05;31.68;38.45
65972;SHT31;52726;48.852;9.152;2023-06-26T08:28:31;31.39;37.49
65972;SHT31;52726;48.852;9.152;2023-06-26T08:30:56;31.27;38.33
65972;SHT31;52726;48.852;9.152;2023-06-26T08:33:21;31.78;38.99
65972;SHT31;52726;48.852;9.152;2023-06-26T08:35:47;32.03;38.40
65972;SHT31;52726;48.852;9.152;2023-06-26T08:38:15;32.06;38.43
65972;SHT31;52726;48.852;9.152;2023-06-26T08:40:40;32.20;37.06
65972;SHT31;52726;48.852;9.152;2023-06-26T08:43:06;32.05;38.46
65972;SHT31;52726;48.852;9.152;2023-06-26T08:45:31;32.36;38.40
65972;SHT31;52726;48.852;9.152;2023-06-26T08:48:00;31.92;37.62
65972;SHT31;52726;48.852;9.152;2023-06-26T08:50:28;32.23;37.91
65972;SHT31;52726;48.852;9.152;2023-06-26T08:55:22;32.28;37.60
65972;SHT31;52726;48.852;9.152;2023-06-26T08:57:50;32.72;37.64
65972;SHT31;52726;48.852;9.152;2023-06-26T09:00:17;32.44;37.74
65972;SHT31;52726;48.852;9.152;2023-06-26T09:02:43;32.34;37.04
65972;SHT31;52726;48.852;9.152;2023-06-26T09:05:09;31.99;37.40
65972;SHT31;52726;48.852;9.152;2023-06-26T09:07:35;32.19;37.59
65972;SHT31;52726;48.852;9.152;2023-06-26T09:10:00;32.10;36.81
65972;SHT31;52726;48.852;9.152;2023-06-26T09:12:28;32.02;38.73
65972;SHT31;52726;48.852;9.152;2023-06-26T09:14:56;32.06;39.21
65972;SHT31;52726;48.852;9.152;2023-06-26T09:17:25;32.28;38.28
65972;SHT31;52726;48.852;9.152;2023-06-26T09:19:54;32.12;36.95
65972;SHT31;52726;48.852;9.152;2023-06-26T09:22:20;31.78;36.44
65972;SHT31;52726;48.852;9.152;2023-06-26T09:24:45;31.17;37.52
65972;SHT31;52726;48.852;9.152;2023-06-26T09:27:11;31.15;37.71
65972;SHT31;52726;48.852;9.152;2023-06-26T09:29:39;31.34;37.82
65972;SHT31;52726;48.852;9.152;2023-06-26T09:32:10;31.70;38.40
65972;SHT31;52726;48.852;9.152;2023-06-26T09:34:41;32.02;37.15
65972;SHT31;52726;48.852;9.152;2023-06-26T09:37:06;31.70;38.21
65972;SHT31;52726;48.852;9.152;2023-06-26T09:39:32;31.49;37.93
65972;SHT31;52726;48.852;9.152;2023-06-26T09:41:58;31.85;38.86
65972;SHT31;52726;48.852;9.152;2023-06-26T09:44:24;31.43;40.17
65972;SHT31;52726;48.852;9.152;2023-06-26T09:46:49;31.30;38.60
65972;SHT31;52726;48.852;9.152;2023-06-26T09:49:15;31.27;38.60
65972;SHT31;52726;48.852;9.152;2023-06-26T09:51:42;31.10;39.25
65972;SHT31;52726;48.852;9.152;2023-06-26T09:54:08;31.38;40.23
65972;SHT31;52726;48.852;9.152;2023-06-26T09:56:34;30.84;39.90
65972;SHT31;52726;48.852;9.152;2023-06-26T09:59:04;31.51;40.06
65972;SHT31;52726;48.852;9.152;2023-06-26T10:01:31;31.55;40.43
65972;SHT31;52726;48.852;9.152;2023-06-26T10:03:57;31.52;39.74
65972;SHT31;52726;48.852;9.152;2023-06-26T10:06:33;31.63;39.89
65972;SHT31;52726;48.852;9.152;2023-06-26T10:09:00;31.73;39.89
65972;SHT31;52726;48.852;9.152;2023-06-26T10:11:53;31.37;40.31
65972;SHT31;52726;48.852;9.152;2023-06-26T10:14:17;31.42;40.32
65972;SHT31;52726;48.852;9.152;2023-06-26T10:16:44;31.69;38.77
65972;SHT31;52726;48.852;9.152;2023-06-26T10:19:13;31.52;40.44
65972;SHT31;52726;48.852;9.152;2023-06-26T10:21:39;31.46;39.92
65972;SHT31;52726;48.852;9.152;2023-06-26T10:24:06;31.41;41.56
65972;SHT31;52726;48.852;9.152;2023-06-26T10:26:35;31.46;41.63
65972;SHT31;52726;48.852;9.152;2023-06-26T10:29:04;31.07;41.52
65972;SHT31;52726;48.852;9.152;2023-06-26T10:31:31;30.84;41.09
65972;SHT31;52726;48.852;9.152;2023-06-26T10:33:58;31.01;40.77
65972;SHT31;52726;48.852;9.152;2023-06-26T10:36:35;30.94;40.68
65972;SHT31;52726;48.852;9.152;2023-06-26T10:39:04;30.45;40.70
65972;SHT31;52726;48.852;9.152;2023-06-26T10:41:36;30.55;41.22
65972;SHT31;52726;48.852;9.152;2023-06-26T10:46:28;31.07;40.18
65972;SHT31;52726;48.852;9.152;2023-06-26T10:48:58;31.37;39.78
65972;SHT31;52726;48.852;9.152;2023-06-26T10:51:26;31.25;39.27
65972;SHT31;52726;48.852;9.152;2023-06-26T10:53:55;31.20;40.02
65972;SHT31;52726;48.852;9.152;2023-06-26T10:56:40;30.72;40.94
65972;SHT31;52726;48.852;9.152;2023-06-26T10:59:19;30.82;41.37
65972;SHT31;52726;48.852;9.152;2023-06-26T11:04:39;30.38;41.83
65972;SHT31;52726;48.852;9.152;2023-06-26T11:07:25;30.19;42.68
65972;SHT31;52726;48.852;9.152;2023-06-26T11:10:02;29.94;43.15
65972;SHT31;52726;48.852;9.152;2023-06-26T11:12:43;30.10;44.56
65972;SHT31;52726;48.852;9.152;2023-06-26T11:15:10;30.40;43.76
65972;SHT31;52726;48.852;9.152;2023-06-26T11:17:37;30.22;43.76
65972;SHT31;52726;48.852;9.152;2023-06-26T11:20:05;30.11;43.92
65972;SHT31;52726;48.852;9.152;2023-06-26T11:22:34;30.01;44.50
65972;SHT31;52726;48.852;9.152;2023-06-26T11:25:00;30.53;44.40
65972;SHT31;52726;48.852;9.152;2023-06-26T11:27:42;30.28;43.66
65972;SHT31;52726;48.852;9.152;2023-06-26T11:30:11;30.14;44.82
65972;SHT31;52726;48.852;9.152;2023-06-26T11:32:47;30.67;43.45
65972;SHT31;52726;48.852;9.152;2023-06-26T11:35:12;30.62;44.31
65972;SHT31;52726;48.852;9.152;2023-06-26T11:37:38;30.46;44.15
65972;SHT31;52726;48.852;9.152;2023-06-26T11:40:19;30.69;44.09
65972;SHT31;52726;48.852;9.152;2023-06-26T11:42:44;30.40;44.55
65972;SHT31;52726;48.852;9.152;2023-06-26T11:45:10;30.66;44.87
65972;SHT31;52726;48.852;9.152;2023-06-26T11:47:38;30.60;45.52
65972;SHT31;52726;48.852;9.152;2023-06-26T11:50:05;30.38;45.46
65972;SHT31;52726;48.852;9.152;2023-06-26T11:52:32;30.29;45.56
65972;SHT31;52726;48.852;9.152;2023-06-26T11:54:58;29.96;45.94
65972;SHT31;52726;48.852;9.152;2023-06-26T11:57:23;29.83;46.13
65972;SHT31;52726;48.852;9.152;2023-06-26T11:59:49;29.59;47.08
65972;SHT31;52726;48.852;9.152;2023-06-26T12:02:16;29.63;48.26
65972;SHT31;52726;48.852;9.152;2023-06-26T12:04:42;29.59;47.10
65972;SHT31;52726;48.852;9.152;2023-06-26T12:07:09;29.70;47.04
65972;SHT31;52726;48.852;9.152;2023-06-26T12:09:43;29.96;46.83
65972;SHT31;52726;48.852;9.152;2023-06-26T12:12:11;29.71;47.01
65972;SHT31;52726;48.852;9.152;2023-06-26T12:14:37;29.63;47.33
65972;SHT31;52726;48.852;9.152;2023-06-26T12:17:09;29.53;47.23
65972;SHT31;52726;48.852;9.152;2023-06-26T12:19:37;29.77;47.00
65972;SHT31;52726;48.852;9.152;2023-06-26T12:22:06;29.69;46.44
65972;SHT31;52726;48.852;9.152;2023-06-26T12:24:32;29.33;46.96
65972;SHT31;52726;48.852;9.152;2023-06-26T12:26:57;29.53;47.06
65972;SHT31;52726;48.852;9.152;2023-06-26T12:29:32;29.63;47.09
65972;SHT31;52726;48.852;9.152;2023-06-26T12:31:58;29.76;47.40
65972;SHT31;52726;48.852;9.152;2023-06-26T12:34:27;29.84;47.00
65972;SHT31;52726;48.852;9.152;2023-06-26T12:36:53;29.83;46.98
65972;SHT31;52726;48.852;9.152;2023-06-26T12:39:21;29.76;46.80
65972;SHT31;52726;48.852;9.152;2023-06-26T12:41:56;29.73;47.20
65972;SHT31;52726;48.852;9.152;2023-06-26T12:44:25;29.84;46.44
65972;SHT31;52726;48.852;9.152;2023-06-26T12:47:01;30.07;46.77
65972;SHT31;52726;48.852;9.152;2023-06-26T12:49:37;30.29;45.96
65972;SHT31;52726;48.852;9.152;2023-06-26T12:52:09;30.36;45.88
65972;SHT31;52726;48.852;9.152;2023-06-26T12:54:36;30.40;45.53
65972;SHT31;52726;48.852;9.152;2023-06-26T12:57:02;30.12;45.32
65972;SHT31;52726;48.852;9.152;2023-06-26T12:59:29;29.74;45.97
65972;SHT31;52726;48.852;9.152;2023-06-26T13:01:58;29.90;46.10
65972;SHT31;52726;48.852;9.152;2023-06-26T13:04:23;29.35;45.69
65972;SHT31;52726;48.852;9.152;2023-06-26T13:06:49;29.33;45.85
65972;SHT31;52726;48.852;9.152;2023-06-26T13:09:15;29.06;45.80
65972;SHT31;52726;48.852;9.152;2023-06-26T13:11:41;29.33;45.97
65972;SHT31;52726;48.852;9.152;2023-06-26T13:14:06;29.50;45.00
65972;SHT31;52726;48.852;9.152;2023-06-26T13:16:32;29.50;44.75
65972;SHT31;52726;48.852;9.152;2023-06-26T13:19:00;29.35;45.76
65972;SHT31;52726;48.852;9.152;2023-06-26T13:21:27;29.62;44.49
65972;SHT31;52726;48.852;9.152;2023-06-26T13:23:53;29.52;44.68
65972;SHT31;52726;48.852;9.152;2023-06-26T13:26:19;29.77;44.88
65972;SHT31;52726;48.852;9.152;2023-06-26T13:28:45;29.54;42.75
65972;SHT31;52726;48.852;9.152;2023-06-26T13:31:10;29.57;43.96
65972;SHT31;52726;48.852;9.152;2023-06-26T13:33:36;29.60;43.85
65972;SHT31;52726;48.852;9.152;2023-06-26T13:36:01;29.60;42.34
65972;SHT31;52726;48.852;9.152;2023-06-26T13:38:29;29.70;41.55
65972;SHT31;52726;48.852;9.152;2023-06-26T13:40:55;29.54;41.90
65972;SHT31;52726;48.852;9.152;2023-06-26T13:43:23;29.59;42.61
65972;SHT31;52726;48.852;9.152;2023-06-26T13:45:51;29.54;42.43
65972;SHT31;52726;48.852;9.152;2023-06-26T13:48:25;29.70;42.82
65972;SHT31;52726;48.852;9.152;2023-06-26T13:50:51;29.60;42.00
65972;SHT31;52726;48.852;9.152;2023-06-26T13:53:17;29.69;41.25
65972;SHT31;52726;48.852;9.152;2023-06-26T13:55:42;29.71;41.33
65972;SHT31;52726;48.852;9.152;2023-06-26T13:58:09;29.85;41.59
65972;SHT31;52726;48.852;9.152;2023-06-26T14:00:35;29.92;41.16
65972;SHT31;52726;48.852;9.152;2023-06-26T14:03:04;29.49;40.88
65972;SHT31;52726;48.852;9.152;2023-06-26T14:05:35;29.70;41.78
65972;SHT31;52726;48.852;9.152;2023-06-26T14:08:03;29.85;41.01
65972;SHT31;52726;48.852;9.152;2023-06-26T14:10:29;29.57;41.81
65972;SHT31;52726;48.852;9.152;2023-06-26T14:12:55;29.37;41.22
65972;SHT31;52726;48.852;9.152;2023-06-26T14:15:20;29.32;41.63
65972;SHT31;52726;48.852;9.152;2023-06-26T14:17:46;29.52;40.53
65972;SHT31;52726;48.852;9.152;2023-06-26T14:20:12;29.43;40.18
65972;SHT31;52726;48.852;9.152;2023-06-26T14:22:39;29.15;40.88
65972;SHT31;52726;48.852;9.152;2023-06-26T14:25:06;29.29;40.81
65972;SHT31;52726;48.852;9.152;2023-06-26T14:27:31;29.27;40.94
65972;SHT31;52726;48.852;9.152;2023-06-26T14:29:56;29.32;40.93
65972;SHT31;52726;48.852;9.152;2023-06-26T14:32:22;29.39;41.17
65972;SHT31;52726;48.852;9.152;2023-06-26T14:34:47;29.56;40.40
65972;SHT31;52726;48.852;9.152;2023-06-26T14:37:13;29.27;41.59
65972;SHT31;52726;48.852;9.152;2023-06-26T14:39:38;29.47;41.75
65972;SHT31;52726;48.852;9.152;2023-06-26T14:42:04;29.50;41.59
65972;SHT31;52726;48.852;9.152;2023-06-26T14:44:31;29.09;41.59
65972;SHT31;52726;48.852;9.152;2023-06-26T14:46:56;29.05;42.41
65972;SHT31;52726;48.852;9.152;2023-06-26T14:49:22;29.25;42.12
65972;SHT31;52726;48.852;9.152;2023-06-26T14:51:47;29.04;41.52
65972;SHT31;52726;48.852;9.152;2023-06-26T14:54:12;29.09;42.09
65972;SHT31;52726;48.852;9.152;2023-06-26T14:56:38;28.82;41.74
65972;SHT31;52726;48.852;9.152;2023-06-26T14:59:03;28.88;41.59
65972;SHT31;52726;48.852;9.152;2023-06-26T15:01:35;28.88;42.10
65972;SHT31;52726;48.852;9.152;2023-06-26T15:04:00;28.57;42.06
65972;SHT31;52726;48.852;9.152;2023-06-26T15:06:26;28.77;42.09
65972;SHT31;52726;48.852;9.152;2023-06-26T15:08:51;28.67;41.41
65972;SHT31;52726;48.852;9.152;2023-06-26T15:11:18;28.57;41.67
65972;SHT31;52726;48.852;9.152;2023-06-26T15:13:43;28.68;42.45
65972;SHT31;52726;48.852;9.152;2023-06-26T15:16:08;28.99;42.68
65972;SHT31;52726;48.852;9.152;2023-06-26T15:18:34;28.74;42.46
65972;SHT31;52726;48.852;9.152;2023-06-26T15:21:00;28.65;42.33
65972;SHT31;52726;48.852;9.152;2023-06-26T15:23:28;28.54;42.23
65972;SHT31;52726;48.852;9.152;2023-06-26T15:25:53;28.27;42.59
65972;SHT31;52726;48.852;9.152;2023-06-26T15:28:19;28.39;42.62
65972;SHT31;52726;48.852;9.152;2023-06-26T15:30:45;28.39;42.82
65972;SHT31;52726;48.852;9.152;2023-06-26T15:33:11;28.26;42.68
65972;SHT31;52726;48.852;9.152;2023-06-26T15:35:36;28.10;42.80
65972;SHT31;52726;48.852;9.152;2023-06-26T15:38:02;27.92;42.60
65972;SHT31;52726;48.852;9.152;2023-06-26T15:40:28;27.89;43.06
65972;SHT31;52726;48.852;9.152;2023-06-26T15:42:53;28.16;43.00